To NAV CANADA Home Page Login to a new session Search on AWWS site Feedback and Comments Disclaimer Vers la page française équivalente Tips FAQ What's new on the site To the Forecasts and Observations / NOTAM section To "File a Flight Plan" website Publications and other links Update of the User's profile FIC Telephone Numbers My Weather Data Folder Route Weather Data Regional Weather Data Local Weather Data To the Forecasts and Observations / NOTAM section
Request Generated 04/24/2014 at 18:56:35 UTC . Weather information available at that time is displayed.

METAR/TAF

BRANDON/BRANDON MUNICIPALITY/MB    

METAR CYBR 241800Z 09003KT 4SM BR OVC006 06/05 A2972 RMK SF8 SLP081=
METAR CYBR 241700Z 00000KT 4SM BR OVC005 05/05 A2972 RMK SF8 SLP083=
SPECI CYBR 241634Z 13003KT 3SM BR OVC006 05/05 A2972 RMK ST8 SLP082=
SPECI CYBR 241622Z 16003KT 2SM BR OVC005 05/05 A2972 RMK ST8 SLP083=
SPECI CYBR 241610Z 14005KT 1SM BR OVC002 05/05 A2971 RMK FG1ST7
SLP079=
METAR CYBR 241600Z 14006KT 1/2SM FG OVC002 04/04 A2971 RMK FG7ST1
SLP078=

TAF CYBR 241739Z 2418/2506 VRB03KT 6SM BR OVC005 TEMPO 2418/2422 4SM
-SHRA BR OVC010
BECMG 2418/2420 32008KT
FM242200 36008KT 4SM -SHRA BR BKN012 TEMPO 2422/2502 P6SM NSW
BKN025 PROB30 2422/2502 VRB15G25KT 2SM -TSRA BR BKN004 OVC012CB
FM250200 05008KT 6SM BR BKN012 TEMPO 2502/2506 4SM -SHRA BR
SCT004 BKN008
RMK NXT FCST BY 250000Z=
Your time UTC time
Weather data provided by Environment Canada and NAV CANADA